sensor_id;sensor_type;location;lat;lon;timestamp;pressure;altitude;pressure_sealevel;temperature
76381;BMP280;65202;52.520;10.528;2023-02-15T00:00:08;102577.94;;;1.74
76381;BMP280;65202;52.520;10.528;2023-02-15T00:02:39;102581.19;;;1.66
76381;BMP280;65202;52.520;10.528;2023-02-15T00:05:07;102573.25;;;1.84
76381;BMP280;65202;52.520;10.528;2023-02-15T00:07:34;102568.56;;;1.93
76381;BMP280;65202;52.520;10.528;2023-02-15T00:10:02;102565.28;;;1.86
76381;BMP280;65202;52.520;10.528;2023-02-15T00:12:30;102569.50;;;1.49
76381;BMP280;65202;52.520;10.528;2023-02-15T00:14:58;102557.19;;;1.65
76381;BMP280;65202;52.520;10.528;2023-02-15T00:17:27;102569.06;;;1.38
76381;BMP280;65202;52.520;10.528;2023-02-15T00:19:55;102566.13;;;1.49
76381;BMP280;65202;52.520;10.528;2023-02-15T00:22:22;102557.28;;;1.95
76381;BMP280;65202;52.520;10.528;2023-02-15T00:24:50;102561.16;;;1.56
76381;BMP280;65202;52.520;10.528;2023-02-15T00:27:17;102551.03;;;1.61
76381;BMP280;65202;52.520;10.528;2023-02-15T00:29:44;102551.47;;;1.73
76381;BMP280;65202;52.520;10.528;2023-02-15T00:32:13;102552.13;;;1.79
76381;BMP280;65202;52.520;10.528;2023-02-15T00:34:40;102541.72;;;2.27
76381;BMP280;65202;52.520;10.528;2023-02-15T00:37:07;102551.22;;;2.16
76381;BMP280;65202;52.520;10.528;2023-02-15T00:39:34;102554.41;;;1.99
76381;BMP280;65202;52.520;10.528;2023-02-15T00:42:01;102549.81;;;1.80
76381;BMP280;65202;52.520;10.528;2023-02-15T00:44:29;102545.63;;;1.94
76381;BMP280;65202;52.520;10.528;2023-02-15T00:46:56;102534.44;;;1.83
76381;BMP280;65202;52.520;10.528;2023-02-15T00:49:23;102534.94;;;1.72
76381;BMP280;65202;52.520;10.528;2023-02-15T00:51:50;102541.00;;;1.97
76381;BMP280;65202;52.520;10.528;2023-02-15T00:54:18;102531.22;;;1.53
76381;BMP280;65202;52.520;10.528;2023-02-15T00:56:45;102525.22;;;1.51
76381;BMP280;65202;52.520;10.528;2023-02-15T00:59:12;102525.44;;;1.68
76381;BMP280;65202;52.520;10.528;2023-02-15T01:01:40;102533.59;;;1.15
76381;BMP280;65202;52.520;10.528;2023-02-15T01:04:07;102525.78;;;1.48
76381;BMP280;65202;52.520;10.528;2023-02-15T01:06:34;102520.34;;;1.44
76381;BMP280;65202;52.520;10.528;2023-02-15T01:09:01;102524.53;;;1.67
76381;BMP280;65202;52.520;10.528;2023-02-15T01:11:29;102519.56;;;2.05
76381;BMP280;65202;52.520;10.528;2023-02-15T01:13:57;102518.94;;;2.14
76381;BMP280;65202;52.520;10.528;2023-02-15T01:16:27;102513.91;;;2.21
76381;BMP280;65202;52.520;10.528;2023-02-15T01:18:55;102509.72;;;1.52
76381;BMP280;65202;52.520;10.528;2023-02-15T01:21:24;102506.88;;;1.33
76381;BMP280;65202;52.520;10.528;2023-02-15T01:23:52;102505.09;;;1.32
76381;BMP280;65202;52.520;10.528;2023-02-15T01:26:20;102507.88;;;1.95
76381;BMP280;65202;52.520;10.528;2023-02-15T01:28:47;102503.53;;;2.01
76381;BMP280;65202;52.520;10.528;2023-02-15T01:31:16;102509.56;;;2.58
76381;BMP280;65202;52.520;10.528;2023-02-15T01:33:46;102505.13;;;2.47
76381;BMP280;65202;52.520;10.528;2023-02-15T01:36:14;102502.78;;;2.48
76381;BMP280;65202;52.520;10.528;2023-02-15T01:38:44;102502.88;;;2.57
76381;BMP280;65202;52.520;10.528;2023-02-15T01:41:12;102497.63;;;2.54
76381;BMP280;65202;52.520;10.528;2023-02-15T01:43:53;102494.19;;;2.69
76381;BMP280;65202;52.520;10.528;2023-02-15T01:46:35;102493.19;;;2.67
76381;BMP280;65202;52.520;10.528;2023-02-15T01:49:15;102508.81;;;2.04
76381;BMP280;65202;52.520;10.528;2023-02-15T01:51:48;102511.03;;;1.94
76381;BMP280;65202;52.520;10.528;2023-02-15T01:54:23;102506.75;;;2.00
76381;BMP280;65202;52.520;10.528;2023-02-15T01:57:02;102489.56;;;2.48
76381;BMP280;65202;52.520;10.528;2023-02-15T01:59:33;102486.41;;;2.57
76381;BMP280;65202;52.520;10.528;2023-02-15T02:02:03;102486.56;;;1.74
76381;BMP280;65202;52.520;10.528;2023-02-15T02:04:39;102485.38;;;2.01
76381;BMP280;65202;52.520;10.528;2023-02-15T02:07:14;102479.25;;;1.82
76381;BMP280;65202;52.520;10.528;2023-02-15T02:09:44;102476.75;;;1.97
76381;BMP280;65202;52.520;10.528;2023-02-15T02:12:12;102477.94;;;2.16
76381;BMP280;65202;52.520;10.528;2023-02-15T02:14:41;102471.59;;;2.03
76381;BMP280;65202;52.520;10.528;2023-02-15T02:20:28;102464.72;;;1.54
76381;BMP280;65202;52.520;10.528;2023-02-15T02:29:45;102452.19;;;1.15
76381;BMP280;65202;52.520;10.528;2023-02-15T02:32:53;102452.69;;;1.57
76381;BMP280;65202;52.520;10.528;2023-02-15T02:35:57;102458.50;;;0.75
76381;BMP280;65202;52.520;10.528;2023-02-15T02:38:39;102448.88;;;1.30
76381;BMP280;65202;52.520;10.528;2023-02-15T02:44:17;102449.44;;;1.96
76381;BMP280;65202;52.520;10.528;2023-02-15T02:47:15;102451.06;;;1.42
76381;BMP280;65202;52.520;10.528;2023-02-15T02:50:03;102448.97;;;1.91
76381;BMP280;65202;52.520;10.528;2023-02-15T02:55:24;102431.03;;;1.86
76381;BMP280;65202;52.520;10.528;2023-02-15T02:58:23;102423.16;;;1.66
76381;BMP280;65202;52.520;10.528;2023-02-15T03:01:01;102422.75;;;1.39
76381;BMP280;65202;52.520;10.528;2023-02-15T03:03:45;102428.25;;;0.69
76381;BMP280;65202;52.520;10.528;2023-02-15T03:06:25;102421.47;;;0.82
76381;BMP280;65202;52.520;10.528;2023-02-15T03:08:59;102421.78;;;1.61
76381;BMP280;65202;52.520;10.528;2023-02-15T03:11:33;102413.59;;;1.99
76381;BMP280;65202;52.520;10.528;2023-02-15T03:14:00;102418.56;;;1.31
76381;BMP280;65202;52.520;10.528;2023-02-15T03:16:28;102421.88;;;1.16
76381;BMP280;65202;52.520;10.528;2023-02-15T03:19:23;102419.78;;;1.50
76381;BMP280;65202;52.520;10.528;2023-02-15T03:22:06;102411.78;;;1.59
76381;BMP280;65202;52.520;10.528;2023-02-15T03:24:57;102413.09;;;1.33
76381;BMP280;65202;52.520;10.528;2023-02-15T03:27:37;102407.59;;;1.36
76381;BMP280;65202;52.520;10.528;2023-02-15T03:30:10;102408.41;;;1.59
76381;BMP280;65202;52.520;10.528;2023-02-15T03:32:41;102408.28;;;1.20
76381;BMP280;65202;52.520;10.528;2023-02-15T03:35:10;102405.66;;;1.18
76381;BMP280;65202;52.520;10.528;2023-02-15T03:37:50;102408.19;;;0.89
76381;BMP280;65202;52.520;10.528;2023-02-15T03:40:38;102406.78;;;0.91
76381;BMP280;65202;52.520;10.528;2023-02-15T03:48:58;102399.53;;;0.48
76381;BMP280;65202;52.520;10.528;2023-02-15T03:51:36;102394.91;;;1.18
76381;BMP280;65202;52.520;10.528;2023-02-15T03:54:12;102397.06;;;1.30
76381;BMP280;65202;52.520;10.528;2023-02-15T03:57:04;102387.31;;;1.69
76381;BMP280;65202;52.520;10.528;2023-02-15T03:59:50;102389.31;;;1.34
76381;BMP280;65202;52.520;10.528;2023-02-15T04:02:41;102387.44;;;0.87
76381;BMP280;65202;52.520;10.528;2023-02-15T04:05:19;102389.41;;;1.20
76381;BMP280;65202;52.520;10.528;2023-02-15T04:07:46;102401.69;;;0.67
76381;BMP280;65202;52.520;10.528;2023-02-15T04:10:13;102393.66;;;0.32
76381;BMP280;65202;52.520;10.528;2023-02-15T04:12:59;102389.34;;;0.45
76381;BMP280;65202;52.520;10.528;2023-02-15T04:15:26;102377.88;;;1.12
76381;BMP280;65202;52.520;10.528;2023-02-15T04:18:14;102385.09;;;0.95
76381;BMP280;65202;52.520;10.528;2023-02-15T04:20:45;102378.84;;;1.21
76381;BMP280;65202;52.520;10.528;2023-02-15T04:23:31;102381.28;;;0.83
76381;BMP280;65202;52.520;10.528;2023-02-15T04:26:17;102383.75;;;0.61
76381;BMP280;65202;52.520;10.528;2023-02-15T04:28:44;102388.81;;;0.92
76381;BMP280;65202;52.520;10.528;2023-02-15T04:31:11;102388.25;;;0.94
76381;BMP280;65202;52.520;10.528;2023-02-15T04:33:39;102389.66;;;0.92
76381;BMP280;65202;52.520;10.528;2023-02-15T04:36:06;102391.66;;;0.65
76381;BMP280;65202;52.520;10.528;2023-02-15T04:38:33;102383.66;;;0.53
76381;BMP280;65202;52.520;10.528;2023-02-15T04:41:00;102385.75;;;0.27
76381;BMP280;65202;52.520;10.528;2023-02-15T04:43:27;102370.97;;;0.27
76381;BMP280;65202;52.520;10.528;2023-02-15T04:45:54;102373.41;;;0.34
76381;BMP280;65202;52.520;10.528;2023-02-15T04:48:22;102381.19;;;0.23
76381;BMP280;65202;52.520;10.528;2023-02-15T04:50:49;102375.88;;;-0.38
76381;BMP280;65202;52.520;10.528;2023-02-15T04:53:16;102381.31;;;-0.48
76381;BMP280;65202;52.520;10.528;2023-02-15T04:55:45;102377.13;;;-0.49
76381;BMP280;65202;52.520;10.528;2023-02-15T04:58:12;102364.72;;;-0.78
76381;BMP280;65202;52.520;10.528;2023-02-15T05:00:39;102363.81;;;-0.21
76381;BMP280;65202;52.520;10.528;2023-02-15T05:03:06;102361.91;;;-0.24
76381;BMP280;65202;52.520;10.528;2023-02-15T05:05:33;102364.19;;;0.11
76381;BMP280;65202;52.520;10.528;2023-02-15T05:08:01;102364.81;;;-0.05
76381;BMP280;65202;52.520;10.528;2023-02-15T05:10:28;102362.78;;;-0.23
76381;BMP280;65202;52.520;10.528;2023-02-15T05:12:55;102357.72;;;-0.32
76381;BMP280;65202;52.520;10.528;2023-02-15T05:15:22;102350.19;;;0.03
76381;BMP280;65202;52.520;10.528;2023-02-15T05:17:49;102352.31;;;0.00
76381;BMP280;65202;52.520;10.528;2023-02-15T05:20:17;102346.03;;;0.17
76381;BMP280;65202;52.520;10.528;2023-02-15T05:22:45;102335.53;;;0.11
76381;BMP280;65202;52.520;10.528;2023-02-15T05:25:12;102340.91;;;0.23
76381;BMP280;65202;52.520;10.528;2023-02-15T05:27:58;102341.88;;;0.09
76381;BMP280;65202;52.520;10.528;2023-02-15T05:30:44;102344.50;;;0.11
76381;BMP280;65202;52.520;10.528;2023-02-15T05:33:11;102338.72;;;-0.26
76381;BMP280;65202;52.520;10.528;2023-02-15T05:35:39;102346.53;;;-0.51
76381;BMP280;65202;52.520;10.528;2023-02-15T05:38:06;102351.72;;;-0.27
76381;BMP280;65202;52.520;10.528;2023-02-15T05:40:33;102346.81;;;-0.27
76381;BMP280;65202;52.520;10.528;2023-02-15T05:43:00;102344.25;;;-0.06
76381;BMP280;65202;52.520;10.528;2023-02-15T05:45:28;102350.94;;;-0.05
76381;BMP280;65202;52.520;10.528;2023-02-15T05:47:55;102348.94;;;-0.30
76381;BMP280;65202;52.520;10.528;2023-02-15T05:50:25;102346.88;;;-0.41
76381;BMP280;65202;52.520;10.528;2023-02-15T05:52:53;102351.69;;;-0.63
76381;BMP280;65202;52.520;10.528;2023-02-15T05:55:20;102346.59;;;-0.64
76381;BMP280;65202;52.520;10.528;2023-02-15T05:57:48;102356.50;;;-0.28
76381;BMP280;65202;52.520;10.528;2023-02-15T06:00:16;102342.91;;;0.41
76381;BMP280;65202;52.520;10.528;2023-02-15T06:02:43;102351.66;;;-0.06
76381;BMP280;65202;52.520;10.528;2023-02-15T06:05:10;102353.28;;;-0.20
76381;BMP280;65202;52.520;10.528;2023-02-15T06:07:38;102350.19;;;0.03
76381;BMP280;65202;52.520;10.528;2023-02-15T06:10:06;102350.19;;;0.03
76381;BMP280;65202;52.520;10.528;2023-02-15T06:12:33;102355.66;;;0.00
76381;BMP280;65202;52.520;10.528;2023-02-15T06:15:00;102362.66;;;-0.32
76381;BMP280;65202;52.520;10.528;2023-02-15T06:17:28;102355.25;;;-0.25
76381;BMP280;65202;52.520;10.528;2023-02-15T06:19:55;102347.19;;;-0.38
76381;BMP280;65202;52.520;10.528;2023-02-15T06:22:22;102351.56;;;-0.28
76381;BMP280;65202;52.520;10.528;2023-02-15T06:24:49;102341.63;;;-0.07
76381;BMP280;65202;52.520;10.528;2023-02-15T06:27:16;102343.84;;;-0.31
76381;BMP280;65202;52.520;10.528;2023-02-15T06:29:44;102349.91;;;-0.14
76381;BMP280;65202;52.520;10.528;2023-02-15T06:32:11;102347.72;;;0.03
76381;BMP280;65202;52.520;10.528;2023-02-15T06:34:38;102348.16;;;-0.15
76381;BMP280;65202;52.520;10.528;2023-02-15T06:37:05;102345.16;;;-0.49
76381;BMP280;65202;52.520;10.528;2023-02-15T06:39:34;102344.03;;;-0.37
76381;BMP280;65202;52.520;10.528;2023-02-15T06:42:02;102345.81;;;-0.06
76381;BMP280;65202;52.520;10.528;2023-02-15T06:44:29;102338.72;;;-0.26
76381;BMP280;65202;52.520;10.528;2023-02-15T06:46:56;102335.03;;;-0.22
76381;BMP280;65202;52.520;10.528;2023-02-15T06:49:23;102334.56;;;-0.41
76381;BMP280;65202;52.520;10.528;2023-02-15T06:51:50;102335.44;;;-0.40
76381;BMP280;65202;52.520;10.528;2023-02-15T06:54:18;102330.13;;;-0.79
76381;BMP280;65202;52.520;10.528;2023-02-15T06:56:45;102329.25;;;-0.37
76381;BMP280;65202;52.520;10.528;2023-02-15T06:59:12;102334.53;;;-0.34
76381;BMP280;65202;52.520;10.528;2023-02-15T07:01:39;102320.06;;;-0.24
76381;BMP280;65202;52.520;10.528;2023-02-15T07:04:06;102325.56;;;-0.33
76381;BMP280;65202;52.520;10.528;2023-02-15T07:06:34;102324.38;;;0.22
76381;BMP280;65202;52.520;10.528;2023-02-15T07:09:01;102323.41;;;0.06
76381;BMP280;65202;52.520;10.528;2023-02-15T07:11:28;102311.13;;;0.28
76381;BMP280;65202;52.520;10.528;2023-02-15T07:14:14;102318.75;;;0.23
76381;BMP280;65202;52.520;10.528;2023-02-15T07:16:42;102312.19;;;0.01
76381;BMP280;65202;52.520;10.528;2023-02-15T07:19:09;102303.59;;;0.49
76381;BMP280;65202;52.520;10.528;2023-02-15T07:21:36;102304.72;;;0.37
76381;BMP280;65202;52.520;10.528;2023-02-15T07:24:03;102308.09;;;0.38
76381;BMP280;65202;52.520;10.528;2023-02-15T07:26:31;102305.28;;;0.35
76381;BMP280;65202;52.520;10.528;2023-02-15T07:28:59;102304.56;;;0.36
76381;BMP280;65202;52.520;10.528;2023-02-15T07:31:26;102307.72;;;0.35
76381;BMP280;65202;52.520;10.528;2023-02-15T07:33:53;102313.72;;;0.07
76381;BMP280;65202;52.520;10.528;2023-02-15T07:36:20;102313.81;;;0.23
76381;BMP280;65202;52.520;10.528;2023-02-15T07:38:48;102315.81;;;0.34
76381;BMP280;65202;52.520;10.528;2023-02-15T07:41:15;102310.34;;;0.59
76381;BMP280;65202;52.520;10.528;2023-02-15T07:43:44;102318.47;;;0.35
76381;BMP280;65202;52.520;10.528;2023-02-15T07:46:14;102326.78;;;0.06
76381;BMP280;65202;52.520;10.528;2023-02-15T07:48:44;102315.44;;;0.60
76381;BMP280;65202;52.520;10.528;2023-02-15T07:51:13;102313.19;;;0.77
76381;BMP280;65202;52.520;10.528;2023-02-15T07:53:41;102305.94;;;0.41
76381;BMP280;65202;52.520;10.528;2023-02-15T07:56:12;102307.56;;;0.56
76381;BMP280;65202;52.520;10.528;2023-02-15T07:58:44;102305.66;;;0.53
76381;BMP280;65202;52.520;10.528;2023-02-15T08:01:30;102307.88;;;0.59
76381;BMP280;65202;52.520;10.528;2023-02-15T08:03:59;102308.50;;;0.71
76381;BMP280;65202;52.520;10.528;2023-02-15T08:06:29;102313.66;;;1.50
76381;BMP280;65202;52.520;10.528;2023-02-15T08:08:58;102303.28;;;2.56
76381;BMP280;65202;52.520;10.528;2023-02-15T08:11:29;102295.75;;;4.48
76381;BMP280;65202;52.520;10.528;2023-02-15T08:14:10;102282.88;;;5.98
76381;BMP280;65202;52.520;10.528;2023-02-15T08:16:46;102277.78;;;7.12
76381;BMP280;65202;52.520;10.528;2023-02-15T08:19:22;102279.47;;;7.53
76381;BMP280;65202;52.520;10.528;2023-02-15T08:21:59;102274.53;;;7.74
76381;BMP280;65202;52.520;10.528;2023-02-15T08:24:34;102266.03;;;8.23
76381;BMP280;65202;52.520;10.528;2023-02-15T08:27:05;102262.22;;;7.76
76381;BMP280;65202;52.520;10.528;2023-02-15T08:29:35;102258.75;;;8.69
76381;BMP280;65202;52.520;10.528;2023-02-15T08:32:06;102249.03;;;9.39
76381;BMP280;65202;52.520;10.528;2023-02-15T08:34:39;102254.78;;;9.49
76381;BMP280;65202;52.520;10.528;2023-02-15T08:37:07;102243.03;;;10.05
76381;BMP280;65202;52.520;10.528;2023-02-15T08:39:36;102245.25;;;10.01
76381;BMP280;65202;52.520;10.528;2023-02-15T08:42:03;102233.91;;;10.06
76381;BMP280;65202;52.520;10.528;2023-02-15T08:44:31;102215.22;;;10.01
76381;BMP280;65202;52.520;10.528;2023-02-15T08:46:58;102208.56;;;11.12
76381;BMP280;65202;52.520;10.528;2023-02-15T08:49:30;102205.78;;;10.70
76381;BMP280;65202;52.520;10.528;2023-02-15T08:51:57;102207.03;;;11.14
76381;BMP280;65202;52.520;10.528;2023-02-15T08:54:25;102200.44;;;11.53
76381;BMP280;65202;52.520;10.528;2023-02-15T08:56:52;102200.94;;;10.97
76381;BMP280;65202;52.520;10.528;2023-02-15T08:59:21;102197.44;;;11.58
76381;BMP280;65202;52.520;10.528;2023-02-15T09:01:51;102181.16;;;12.47
76381;BMP280;65202;52.520;10.528;2023-02-15T09:04:19;102188.34;;;11.73
76381;BMP280;65202;52.520;10.528;2023-02-15T09:06:48;102192.88;;;11.66
76381;BMP280;65202;52.520;10.528;2023-02-15T09:09:17;102175.91;;;12.29
76381;BMP280;65202;52.520;10.528;2023-02-15T09:11:47;102176.41;;;11.56
76381;BMP280;65202;52.520;10.528;2023-02-15T09:14:21;102176.69;;;11.61
76381;BMP280;65202;52.520;10.528;2023-02-15T09:16:52;102172.66;;;13.01
76381;BMP280;65202;52.520;10.528;2023-02-15T09:19:21;102150.91;;;13.92
76381;BMP280;65202;52.520;10.528;2023-02-15T09:21:49;102164.50;;;12.34
76381;BMP280;65202;52.520;10.528;2023-02-15T09:24:17;102169.50;;;12.76
76381;BMP280;65202;52.520;10.528;2023-02-15T09:26:46;102178.06;;;13.37
76381;BMP280;65202;52.520;10.528;2023-02-15T09:29:16;102175.41;;;13.64
76381;BMP280;65202;52.520;10.528;2023-02-15T09:31:45;102164.28;;;13.75
76381;BMP280;65202;52.520;10.528;2023-02-15T09:34:18;102169.56;;;13.35
76381;BMP280;65202;52.520;10.528;2023-02-15T09:36:47;102157.78;;;14.26
76381;BMP280;65202;52.520;10.528;2023-02-15T09:39:20;102157.63;;;14.39
76381;BMP280;65202;52.520;10.528;2023-02-15T09:54:09;102142.97;;;14.48
76381;BMP280;65202;52.520;10.528;2023-02-15T09:57:01;102150.03;;;14.07
76381;BMP280;65202;52.520;10.528;2023-02-15T09:59:56;102147.63;;;14.74
76381;BMP280;65202;52.520;10.528;2023-02-15T10:08:36;102159.91;;;14.35
76381;BMP280;65202;52.520;10.528;2023-02-15T10:14:21;102143.88;;;14.17
76381;BMP280;65202;52.520;10.528;2023-02-15T10:17:26;102144.63;;;13.84
76381;BMP280;65202;52.520;10.528;2023-02-15T10:29:23;102136.19;;;13.68
76381;BMP280;65202;52.520;10.528;2023-02-15T10:35:15;102143.72;;;12.37
76381;BMP280;65202;52.520;10.528;2023-02-15T10:38:01;102146.41;;;12.40
76381;BMP280;65202;52.520;10.528;2023-02-15T10:41:04;102134.97;;;12.30
76381;BMP280;65202;52.520;10.528;2023-02-15T10:43:50;102134.56;;;11.83
76381;BMP280;65202;52.520;10.528;2023-02-15T10:49:39;102119.69;;;11.86
76381;BMP280;65202;52.520;10.528;2023-02-15T10:52:33;102118.09;;;12.00
76381;BMP280;65202;52.520;10.528;2023-02-15T10:55:19;102118.22;;;12.16
76381;BMP280;65202;52.520;10.528;2023-02-15T10:58:16;102121.28;;;12.25
76381;BMP280;65202;52.520;10.528;2023-02-15T11:01:00;102113.53;;;11.81
76381;BMP280;65202;52.520;10.528;2023-02-15T11:06:49;102109.66;;;12.13
76381;BMP280;65202;52.520;10.528;2023-02-15T11:09:21;102109.09;;;12.04
76381;BMP280;65202;52.520;10.528;2023-02-15T11:11:53;102119.53;;;12.24
76381;BMP280;65202;52.520;10.528;2023-02-15T11:14:42;102108.84;;;12.41
76381;BMP280;65202;52.520;10.528;2023-02-15T11:17:19;102109.84;;;12.45
76381;BMP280;65202;52.520;10.528;2023-02-15T11:22:56;102106.22;;;12.40
76381;BMP280;65202;52.520;10.528;2023-02-15T11:25:30;102108.84;;;12.41
76381;BMP280;65202;52.520;10.528;2023-02-15T11:28:00;102106.72;;;12.49
76381;BMP280;65202;52.520;10.528;2023-02-15T11:30:46;102109.84;;;12.45
76381;BMP280;65202;52.520;10.528;2023-02-15T11:33:25;102107.34;;;13.02
76381;BMP280;65202;52.520;10.528;2023-02-15T11:36:02;102100.50;;;12.71
76381;BMP280;65202;52.520;10.528;2023-02-15T11:38:33;102093.25;;;12.47
76381;BMP280;65202;52.520;10.528;2023-02-15T11:41:09;102099.13;;;12.33
76381;BMP280;65202;52.520;10.528;2023-02-15T11:43:53;102082.03;;;12.56
76381;BMP280;65202;52.520;10.528;2023-02-15T11:46:26;102076.16;;;12.84
76381;BMP280;65202;52.520;10.528;2023-02-15T11:48:53;102071.47;;;12.76
76381;BMP280;65202;52.520;10.528;2023-02-15T11:51:22;102073.47;;;12.67
76381;BMP280;65202;52.520;10.528;2023-02-15T11:53:50;102067.13;;;12.73
76381;BMP280;65202;52.520;10.528;2023-02-15T11:56:21;102056.78;;;13.12
76381;BMP280;65202;52.520;10.528;2023-02-15T11:58:57;102065.13;;;12.82
76381;BMP280;65202;52.520;10.528;2023-02-15T12:01:34;102057.88;;;12.72
76381;BMP280;65202;52.520;10.528;2023-02-15T12:07:17;102049.44;;;13.01
76381;BMP280;65202;52.520;10.528;2023-02-15T12:10:05;102044.84;;;13.54
76381;BMP280;65202;52.520;10.528;2023-02-15T12:12:44;102045.03;;;12.97
76381;BMP280;65202;52.520;10.528;2023-02-15T12:15:12;102037.13;;;13.35
76381;BMP280;65202;52.520;10.528;2023-02-15T12:17:51;102038.91;;;13.22
76381;BMP280;65202;52.520;10.528;2023-02-15T12:20:27;102034.91;;;13.25
76381;BMP280;65202;52.520;10.528;2023-02-15T12:23:03;102039.97;;;13.57
76381;BMP280;65202;52.520;10.528;2023-02-15T12:25:50;102038.31;;;13.42
76381;BMP280;65202;52.520;10.528;2023-02-15T12:28:33;102027.88;;;13.50
76381;BMP280;65202;52.520;10.528;2023-02-15T12:31:17;102027.94;;;13.68
76381;BMP280;65202;52.520;10.528;2023-02-15T12:33:50;102028.34;;;13.59
76381;BMP280;65202;52.520;10.528;2023-02-15T12:36:22;102027.13;;;13.84
76381;BMP280;65202;52.520;10.528;2023-02-15T12:41:57;102027.16;;;13.53
76381;BMP280;65202;52.520;10.528;2023-02-15T12:44:30;102025.31;;;13.66
76381;BMP280;65202;52.520;10.528;2023-02-15T12:49:44;102010.06;;;13.63
76381;BMP280;65202;52.520;10.528;2023-02-15T12:54:44;102013.31;;;13.77
76381;BMP280;65202;52.520;10.528;2023-02-15T12:57:31;102004.09;;;13.93
76381;BMP280;65202;52.520;10.528;2023-02-15T13:00:25;101992.25;;;14.08
76381;BMP280;65202;52.520;10.528;2023-02-15T13:02:56;101995.25;;;14.01
76381;BMP280;65202;52.520;10.528;2023-02-15T13:05:37;101985.72;;;14.11
76381;BMP280;65202;52.520;10.528;2023-02-15T13:08:45;101989.13;;;13.96
76381;BMP280;65202;52.520;10.528;2023-02-15T13:11:21;101983.63;;;13.87
76381;BMP280;65202;52.520;10.528;2023-02-15T13:14:13;101983.59;;;13.54
76381;BMP280;65202;52.520;10.528;2023-02-15T13:16:46;101984.16;;;13.97
76381;BMP280;65202;52.520;10.528;2023-02-15T13:19:41;101975.31;;;13.72
76381;BMP280;65202;52.520;10.528;2023-02-15T13:22:17;101973.53;;;14.03
76381;BMP280;65202;52.520;10.528;2023-02-15T13:24:50;101961.22;;;14.25
76381;BMP280;65202;52.520;10.528;2023-02-15T13:27:26;101968.84;;;14.26
76381;BMP280;65202;52.520;10.528;2023-02-15T13:30:03;101965.50;;;14.10
76381;BMP280;65202;52.520;10.528;2023-02-15T13:32:40;101962.94;;;14.26
76381;BMP280;65202;52.520;10.528;2023-02-15T13:35:15;101962.38;;;13.98
76381;BMP280;65202;52.520;10.528;2023-02-15T13:38:05;101956.97;;;13.90
76381;BMP280;65202;52.520;10.528;2023-02-15T13:40:48;101953.81;;;14.28
76381;BMP280;65202;52.520;10.528;2023-02-15T13:43:46;101955.25;;;14.07
76381;BMP280;65202;52.520;10.528;2023-02-15T13:46:42;101955.97;;;14.04
76381;BMP280;65202;52.520;10.528;2023-02-15T13:49:37;101967.34;;;13.81
76381;BMP280;65202;52.520;10.528;2023-02-15T13:52:23;101959.22;;;13.86
76381;BMP280;65202;52.520;10.528;2023-02-15T13:58:30;101960.56;;;13.95
76381;BMP280;65202;52.520;10.528;2023-02-15T14:01:31;101947.75;;;13.91
76381;BMP280;65202;52.520;10.528;2023-02-15T14:04:28;101935.59;;;14.16
76381;BMP280;65202;52.520;10.528;2023-02-15T14:10:45;101934.38;;;13.92
76381;BMP280;65202;52.520;10.528;2023-02-15T14:13:45;101936.00;;;13.74
76381;BMP280;65202;52.520;10.528;2023-02-15T14:19:40;101932.38;;;13.53
76381;BMP280;65202;52.520;10.528;2023-02-15T14:22:28;101936.97;;;13.44
76381;BMP280;65202;52.520;10.528;2023-02-15T14:25:27;101933.91;;;13.34
76381;BMP280;65202;52.520;10.528;2023-02-15T14:28:24;101938.38;;;13.23
76381;BMP280;65202;52.520;10.528;2023-02-15T14:30:57;101938.91;;;13.02
76381;BMP280;65202;52.520;10.528;2023-02-15T14:36:03;101932.09;;;13.16
76381;BMP280;65202;52.520;10.528;2023-02-15T14:38:47;101924.22;;;13.25
76381;BMP280;65202;52.520;10.528;2023-02-15T14:41:29;101935.38;;;13.15
76381;BMP280;65202;52.520;10.528;2023-02-15T14:44:39;101937.13;;;12.85
76381;BMP280;65202;52.520;10.528;2023-02-15T14:47:18;101931.91;;;12.66
76381;BMP280;65202;52.520;10.528;2023-02-15T14:49:52;101943.16;;;12.73
76381;BMP280;65202;52.520;10.528;2023-02-15T14:52:19;101932.75;;;12.67
76381;BMP280;65202;52.520;10.528;2023-02-15T15:02:22;101936.63;;;12.17
76381;BMP280;65202;52.520;10.528;2023-02-15T15:10:45;101927.06;;;11.82
76381;BMP280;65202;52.520;10.528;2023-02-15T15:16:30;101930.13;;;11.63
76381;BMP280;65202;52.520;10.528;2023-02-15T15:19:09;101932.72;;;11.65
76381;BMP280;65202;52.520;10.528;2023-02-15T15:32:47;101938.53;;;11.36
76381;BMP280;65202;52.520;10.528;2023-02-15T15:38:42;101940.50;;;11.28
76381;BMP280;65202;52.520;10.528;2023-02-15T15:47:43;101940.06;;;11.07
76381;BMP280;65202;52.520;10.528;2023-02-15T15:50:24;101941.09;;;10.96
76381;BMP280;65202;52.520;10.528;2023-02-15T15:52:57;101941.69;;;10.79
76381;BMP280;65202;52.520;10.528;2023-02-15T15:55:28;101936.09;;;10.70
76381;BMP280;65202;52.520;10.528;2023-02-15T15:58:02;101934.25;;;10.81
76381;BMP280;65202;52.520;10.528;2023-02-15T16:00:36;101937.09;;;10.47
76381;BMP280;65202;52.520;10.528;2023-02-15T16:03:24;101930.34;;;10.59
76381;BMP280;65202;52.520;10.528;2023-02-15T16:05:54;101927.66;;;10.43
76381;BMP280;65202;52.520;10.528;2023-02-15T16:08:33;101917.63;;;10.68
76381;BMP280;65202;52.520;10.528;2023-02-15T16:11:12;101926.97;;;10.71
76381;BMP280;65202;52.520;10.528;2023-02-15T16:13:43;101926.31;;;10.48
76381;BMP280;65202;52.520;10.528;2023-02-15T16:16:24;101930.19;;;10.30
76381;BMP280;65202;52.520;10.528;2023-02-15T16:18:56;101933.91;;;10.49
76381;BMP280;65202;52.520;10.528;2023-02-15T16:21:29;101928.22;;;10.26
76381;BMP280;65202;52.520;10.528;2023-02-15T16:24:16;101925.34;;;10.33
76381;BMP280;65202;52.520;10.528;2023-02-15T16:30:28;101926.97;;;10.19
76381;BMP280;65202;52.520;10.528;2023-02-15T16:35:53;101921.47;;;10.12
76381;BMP280;65202;52.520;10.528;2023-02-15T16:38:45;101919.94;;;10.01
76381;BMP280;65202;52.520;10.528;2023-02-15T16:41:24;101914.53;;;10.08